Time;durP1;ratioP1;P1;durP2;ratioP2;P2;SDS_P1;SDS_P2;PMS_P1;PMS_P2;Temp;Humidity;BMP_temperature;BMP_pressure;BME280_temperature;BME280_humidity;BME280_pressure;Samples;Min_cycle;Max_cycle;Signal;HPM_P1;HPM_P2
2021/11/21 00:00:11;;;;;;;;;33.25;29.75;;;;;10.55;100.00;101470.38;5016338;28;45356;-74
2021/11/21 00:02:37;;;;;;;;;32.75;28.75;;;;;10.49;100.00;101465.75;5016722;28;45506;-77
2021/11/21 00:05:03;;;;;;;;;34.75;28.75;;;;;10.55;100.00;101467.78;5015683;28;45365;-75
2021/11/21 00:07:29;;;;;;;;;31.50;27.00;;;;;10.54;100.00;101472.09;4998090;28;45277;-76
2021/11/21 00:09:54;;;;;;;;;26.75;24.25;;;;;10.57;100.00;101455.84;5015917;28;45986;-75
2021/11/21 00:12:20;;;;;;;;;41.00;35.75;;;;;10.50;100.00;101444.25;4998188;28;45736;-75
2021/11/21 00:14:46;;;;;;;;;28.00;24.00;;;;;10.59;100.00;101446.47;5015594;28;45630;-75
2021/11/21 00:17:12;;;;;;;;;29.75;26.25;;;;;10.58;100.00;101447.25;5015772;28;45751;-76
2021/11/21 00:19:41;;;;;;;;;35.75;29.50;;;;;10.55;100.00;101436.72;5016219;28;45403;-75
2021/11/21 00:22:11;;;;;;;;;29.75;24.75;;;;;10.57;100.00;101438.63;5017431;28;45865;-75
2021/11/21 00:24:38;;;;;;;;;25.50;23.00;;;;;10.55;100.00;101437.63;5019497;28;45446;-75
2021/11/21 00:27:05;;;;;;;;;30.25;23.50;;;;;10.58;100.00;101439.50;5019121;28;45867;-73
2021/11/21 00:29:31;;;;;;;;;24.00;23.00;;;;;10.56;100.00;101438.50;5019392;28;45375;-74
2021/11/21 00:31:56;;;;;;;;;28.75;21.75;;;;;10.54;100.00;101438.44;5001232;28;45634;-74
2021/11/21 00:34:22;;;;;;;;;27.25;23.50;;;;;10.55;100.00;101421.19;5001073;28;47123;-74
2021/11/21 00:36:47;;;;;;;;;30.75;24.25;;;;;10.56;100.00;101429.06;5018767;28;45324;-74
2021/11/21 00:39:13;;;;;;;;;32.00;23.00;;;;;10.47;100.00;101420.78;5019041;28;45288;-73
2021/11/21 00:41:38;;;;;;;;;25.75;23.50;;;;;10.58;100.00;101437.81;5019659;28;45427;-75
2021/11/21 00:44:04;;;;;;;;;29.00;23.50;;;;;10.59;100.00;101433.50;5018860;28;45564;-74
2021/11/21 00:46:31;;;;;;;;;28.25;23.75;;;;;10.57;100.00;101422.16;5018983;28;45312;-74
2021/11/21 00:48:56;;;;;;;;;34.25;23.00;;;;;10.60;100.00;101423.22;5017514;28;45415;-74
2021/11/21 00:51:22;;;;;;;;;23.25;21.75;;;;;10.56;100.00;101417.78;5019116;28;45240;-74
2021/11/21 00:53:53;;;;;;;;;32.00;25.25;;;;;10.59;100.00;101423.16;5018455;28;45908;-74
2021/11/21 00:56:19;;;;;;;;;32.50;23.25;;;;;10.59;100.00;101411.09;5018649;28;45313;-75
2021/11/21 00:58:45;;;;;;;;;29.25;24.50;;;;;10.59;100.00;101418.84;5020551;28;46549;-74
2021/11/21 01:01:11;;;;;;;;;33.75;26.00;;;;;10.56;100.00;101413.53;5021601;28;45397;-74
2021/11/21 01:03:36;;;;;;;;;31.00;24.25;;;;;10.61;100.00;101413.78;5019051;28;45433;-74
2021/11/21 01:06:03;;;;;;;;;23.75;21.00;;;;;10.61;100.00;101418.94;5018524;28;45300;-73
2021/11/21 01:08:29;;;;;;;;;32.75;25.75;;;;;10.61;100.00;101409.47;5018757;28;45457;-73
2021/11/21 01:10:59;;;;;;;;;24.50;23.25;;;;;10.63;100.00;101412.16;5018761;28;45399;-74
2021/11/21 01:13:25;;;;;;;;;26.50;26.00;;;;;10.62;100.00;101413.84;5018490;28;45695;-73
2021/11/21 01:15:51;;;;;;;;;26.00;23.00;;;;;10.60;100.00;101401.63;5018219;28;45248;-73
2021/11/21 01:18:17;;;;;;;;;26.75;23.50;;;;;10.58;100.00;101406.75;5018618;28;45234;-73
2021/11/21 01:20:45;;;;;;;;;31.00;26.25;;;;;10.61;100.00;101411.19;5018660;28;45515;-73
2021/11/21 01:23:13;;;;;;;;;23.75;22.75;;;;;10.58;100.00;101404.16;5018140;28;46080;-74
2021/11/21 01:25:41;;;;;;;;;31.25;26.50;;;;;10.46;100.00;101386.22;5018595;28;45862;-73
2021/11/21 01:28:07;;;;;;;;;30.75;26.00;;;;;10.49;100.00;101393.25;5018776;28;45392;-74
2021/11/21 01:30:33;;;;;;;;;37.50;28.00;;;;;10.57;100.00;101407.53;5018645;28;45328;-74
2021/11/21 01:33:01;;;;;;;;;25.75;22.00;;;;;10.56;100.00;101403.16;5017296;28;45865;-73
2021/11/21 01:35:28;;;;;;;;;33.75;26.25;;;;;10.53;100.00;101403.88;5018028;28;45360;-73
2021/11/21 01:37:54;;;;;;;;;30.25;24.00;;;;;10.48;100.00;101404.44;5017994;28;45267;-75
2021/11/21 01:40:21;;;;;;;;;30.50;23.75;;;;;10.47;100.00;101402.69;5018460;28;45443;-72
2021/11/21 01:42:48;;;;;;;;;27.25;24.00;;;;;10.42;100.00;101409.28;5017781;28;46064;-74
2021/11/21 01:45:14;;;;;;;;;34.25;27.25;;;;;10.37;100.00;101399.56;5017905;28;45928;-76
2021/11/21 01:47:42;;;;;;;;;33.25;25.50;;;;;10.32;100.00;101390.63;5018184;28;45368;-76
2021/11/21 01:50:12;;;;;;;;;27.50;24.25;;;;;10.25;100.00;101385.03;5019199;28;45349;-75
2021/11/21 01:52:38;;;;;;;;;26.50;22.25;;;;;10.21;100.00;101392.59;5019042;28;45430;-76
2021/11/21 01:55:05;;;;;;;;;30.50;26.00;;;;;10.24;100.00;101399.66;5017402;28;45438;-76
2021/11/21 01:57:32;;;;;;;;;34.75;26.75;;;;;10.23;100.00;101396.19;5018111;28;45447;-76
2021/11/21 02:00:01;;;;;;;;;27.25;22.75;;;;;10.19;100.00;101396.84;5017975;28;45256;-73
2021/11/21 02:02:27;;;;;;;;;28.75;22.75;;;;;10.09;100.00;101379.00;5017687;28;46702;-74
2021/11/21 02:04:52;;;;;;;;;35.75;30.50;;;;;10.13;100.00;101380.06;5017389;28;45349;-73
2021/11/21 02:07:18;;;;;;;;;30.00;23.75;;;;;10.15;100.00;101387.09;5000160;28;45348;-74
2021/11/21 02:09:44;;;;;;;;;30.50;24.50;;;;;10.13;100.00;101386.13;5017761;28;45419;-73
2021/11/21 02:12:10;;;;;;;;;21.50;21.00;;;;;10.08;100.00;101377.22;5017818;28;46300;-73
2021/11/21 02:14:35;;;;;;;;;30.50;25.50;;;;;10.06;100.00;101382.28;5017910;28;45253;-73
2021/11/21 02:17:02;;;;;;;;;26.75;22.75;;;;;10.02;100.00;101366.50;5017448;28;45439;-74
2021/11/21 02:19:27;;;;;;;;;26.50;23.00;;;;;10.07;100.00;101367.69;5017935;28;45331;-73
2021/11/21 02:21:53;;;;;;;;;26.50;22.50;;;;;10.07;100.00;101363.38;5017365;28;45404;-73
2021/11/21 02:24:19;;;;;;;;;29.50;23.75;;;;;10.13;100.00;101368.00;5017458;28;45392;-73
2021/11/21 02:26:44;;;;;;;;;27.75;24.50;;;;;10.05;100.00;101356.34;4999916;28;45275;-73
2021/11/21 02:29:11;;;;;;;;;27.25;25.50;;;;;10.05;100.00;101361.53;5017785;28;45285;-73
2021/11/21 02:31:38;;;;;;;;;33.00;28.00;;;;;10.03;100.00;101353.69;5017962;28;45412;-74
2021/11/21 02:34:04;;;;;;;;;30.50;26.75;;;;;10.04;100.00;101345.09;5017284;28;45364;-75
2021/11/21 02:36:30;;;;;;;;;31.75;24.50;;;;;10.04;100.00;101351.97;5017917;28;45488;-75
2021/11/21 02:38:56;;;;;;;;;39.00;29.50;;;;;10.09;100.00;101353.13;5017347;28;45417;-75
2021/11/21 02:41:22;;;;;;;;;31.75;28.50;;;;;10.09;100.00;101347.97;5017145;28;45415;-74
2021/11/21 02:43:47;;;;;;;;;29.50;27.75;;;;;10.11;100.00;101345.44;5016859;28;45367;-77
2021/11/21 02:46:16;;;;;;;;;21.75;18.75;;;;;10.13;100.00;101349.03;5016523;28;45480;-73
2021/11/21 02:48:42;;;;;;;;;38.00;26.50;;;;;10.15;100.00;101345.69;5017078;28;45555;-74
2021/11/21 02:51:11;;;;;;;;;31.25;27.25;;;;;10.15;100.00;101353.47;5017174;28;46034;-74
2021/11/21 02:53:39;;;;;;;;;27.75;25.50;;;;;10.13;100.00;101333.50;5017085;28;45417;-74
2021/11/21 02:56:11;;;;;;;;;28.50;23.50;;;;;10.11;100.00;101338.56;5000011;28;45381;-76
2021/11/21 02:58:38;;;;;;;;;29.00;28.75;;;;;10.10;100.00;101339.38;5017726;28;45267;-76
2021/11/21 03:01:21;;;;;;;;;29.50;21.25;;;;;10.03;100.00;101327.81;5016510;28;45323;-73
2021/11/21 03:03:47;;;;;;;;;20.25;16.25;;;;;10.02;100.00;101326.03;5016549;28;45456;-73
2021/11/21 03:06:13;;;;;;;;;32.50;26.25;;;;;9.99;100.00;101325.84;4999035;28;45382;-73
2021/11/21 03:08:40;;;;;;;;;31.00;26.00;;;;;9.98;100.00;101318.03;5017460;28;45237;-73
2021/11/21 03:11:26;;;;;;;;;33.75;26.00;;;;;10.00;100.00;101316.38;5017079;28;45735;-74
2021/11/21 03:13:52;;;;;;;;;32.50;22.75;;;;;10.02;100.00;101304.44;5017568;28;45812;-74
2021/11/21 03:16:18;;;;;;;;;28.50;23.50;;;;;10.01;100.00;101292.31;5021977;28;45274;-73
2021/11/21 03:18:43;;;;;;;;;30.75;26.25;;;;;10.05;100.00;101299.44;5001208;28;45647;-75
2021/11/21 03:21:09;;;;;;;;;29.50;27.50;;;;;10.01;100.00;101287.13;5016818;28;45947;-74
2021/11/21 03:23:34;;;;;;;;;38.00;33.00;;;;;9.99;100.00;101294.81;5017013;28;45316;-73
2021/11/21 03:26:00;;;;;;;;;33.00;28.00;;;;;10.00;100.00;101296.59;5016340;28;45412;-76
2021/11/21 03:28:26;;;;;;;;;32.75;27.25;;;;;9.99;100.00;101297.41;5016761;28;45489;-76
2021/11/21 03:30:51;;;;;;;;;34.50;33.50;;;;;10.01;100.00;101288.03;5016071;28;46031;-76
2021/11/21 03:33:17;;;;;;;;;31.50;29.75;;;;;10.03;100.00;101286.44;5016265;28;45500;-74
2021/11/21 03:35:43;;;;;;;;;33.50;26.50;;;;;10.00;100.00;101288.84;5016210;28;45346;-74
2021/11/21 03:38:09;;;;;;;;;36.00;30.00;;;;;9.95;100.00;101273.88;5016856;28;45244;-75
2021/11/21 03:40:34;;;;;;;;;36.00;30.25;;;;;9.91;100.00;101271.09;4998307;28;47689;-73
2021/11/21 03:43:02;;;;;;;;;32.00;27.00;;;;;9.94;100.00;101275.53;5016086;28;45772;-74
2021/11/21 03:45:28;;;;;;;;;34.75;27.25;;;;;9.93;100.00;101278.06;5016283;28;45189;-75
2021/11/21 03:47:54;;;;;;;;;33.00;27.50;;;;;9.96;100.00;101280.81;5016229;28;45442;-74
2021/11/21 03:50:20;;;;;;;;;41.25;30.50;;;;;9.95;100.00;101279.03;5016062;28;46313;-75
2021/11/21 03:52:46;;;;;;;;;29.25;23.00;;;;;9.88;100.00;101277.81;5016443;28;45431;-74
2021/11/21 03:55:14;;;;;;;;;32.25;25.25;;;;;9.87;100.00;101283.78;5016505;28;45422;-74
2021/11/21 03:57:40;;;;;;;;;30.50;24.75;;;;;9.88;100.00;101283.84;5015834;28;45537;-73
2021/11/21 04:00:09;;;;;;;;;31.75;24.75;;;;;9.91;100.00;101278.88;5016364;28;45267;-75
2021/11/21 04:02:34;;;;;;;;;35.75;28.50;;;;;9.87;100.00;101273.44;5016272;28;45964;-74
2021/11/21 04:05:00;;;;;;;;;33.00;27.25;;;;;9.95;100.00;101286.81;5015889;28;45487;-73
2021/11/21 04:07:26;;;;;;;;;35.25;30.25;;;;;9.92;100.00;101277.19;5016115;28;45517;-75
2021/11/21 04:09:52;;;;;;;;;34.00;28.75;;;;;9.94;100.00;101275.53;5015553;28;45422;-75
2021/11/21 04:12:18;;;;;;;;;37.00;28.00;;;;;9.96;100.00;101270.47;4998007;28;45376;-75
2021/11/21 04:14:43;;;;;;;;;34.25;30.25;;;;;9.98;100.00;101271.47;5015753;28;45334;-75
2021/11/21 04:17:10;;;;;;;;;32.00;26.00;;;;;9.90;100.00;101251.22;5016342;28;45249;-74
2021/11/21 04:19:35;;;;;;;;;28.00;25.00;;;;;10.00;100.00;101268.13;5015909;28;45294;-74
2021/11/21 04:22:01;;;;;;;;;27.25;24.00;;;;;9.95;100.00;101255.75;5015460;28;45195;-73
2021/11/21 04:24:27;;;;;;;;;42.75;29.00;;;;;9.97;100.00;101257.63;5015758;28;45444;-76
2021/11/21 04:26:52;;;;;;;;;35.00;27.50;;;;;9.86;100.00;101240.63;5015764;28;45253;-75
2021/11/21 04:29:18;;;;;;;;;36.75;30.50;;;;;9.91;100.00;101247.81;5015383;28;46275;-74
2021/11/21 04:31:44;;;;;;;;;37.75;29.25;;;;;9.96;100.00;101250.66;5015297;28;45422;-74
2021/11/21 04:34:11;;;;;;;;;38.50;29.00;;;;;9.95;100.00;101248.88;5016203;28;45390;-73
2021/11/21 04:36:37;;;;;;;;;25.75;21.00;;;;;9.95;100.00;101251.47;5017699;28;45332;-74
2021/11/21 04:39:04;;;;;;;;;35.75;26.00;;;;;9.88;100.00;101245.06;5015295;28;45431;-75
2021/11/21 04:41:30;;;;;;;;;32.00;24.75;;;;;9.82;100.00;101230.94;5015450;28;45289;-75
2021/11/21 04:43:57;;;;;;;;;28.75;24.50;;;;;9.82;100.00;101234.41;5015408;28;45187;-74
2021/11/21 04:46:24;;;;;;;;;28.00;23.00;;;;;9.81;100.00;101224.84;5015781;28;45265;-74
2021/11/21 04:48:50;;;;;;;;;30.50;28.50;;;;;9.89;100.00;101230.47;5015128;28;45419;-73
2021/11/21 04:51:16;;;;;;;;;35.00;29.25;;;;;9.77;100.00;101215.19;5015332;28;45447;-74
2021/11/21 04:53:41;;;;;;;;;30.75;24.75;;;;;9.87;100.00;101222.63;4997199;28;45340;-74
2021/11/21 04:56:07;;;;;;;;;26.25;19.00;;;;;9.90;100.00;101225.34;5015895;28;45305;-73
2021/11/21 04:58:33;;;;;;;;;30.75;25.50;;;;;9.92;100.00;101212.53;5015177;28;46205;-75
2021/11/21 05:00:59;;;;;;;;;28.50;25.50;;;;;10.01;100.00;101218.19;5015020;28;45873;-75
2021/11/21 05:03:24;;;;;;;;;30.75;24.00;;;;;10.06;100.00;101224.47;5015567;28;45763;-73
2021/11/21 05:05:50;;;;;;;;;23.50;17.00;;;;;10.07;100.00;101212.44;5015180;28;45563;-73
2021/11/21 05:08:16;;;;;;;;;29.50;27.00;;;;;10.12;100.00;101218.75;5016201;28;45820;-74
2021/11/21 05:10:41;;;;;;;;;36.75;26.50;;;;;10.05;100.00;101217.53;5018240;28;45332;-74
2021/11/21 05:13:07;;;;;;;;;32.75;26.00;;;;;10.04;100.00;101217.44;5018995;28;45178;-75
2021/11/21 05:15:33;;;;;;;;;32.50;23.25;;;;;10.03;100.00;101207.91;5001604;28;45223;-74
2021/11/21 05:17:58;;;;;;;;;27.25;22.75;;;;;10.03;100.00;101202.75;5018281;28;45928;-73
2021/11/21 05:20:24;;;;;;;;;27.25;25.00;;;;;10.03;100.00;101201.06;5018371;28;45384;-73
2021/11/21 05:22:50;;;;;;;;;24.50;22.50;;;;;9.99;100.00;101196.53;5018255;28;45340;-73
2021/11/21 05:25:16;;;;;;;;;29.00;22.75;;;;;10.05;100.00;101195.94;5018821;28;45306;-73
2021/11/21 05:27:48;;;;;;;;;37.00;31.00;;;;;10.08;100.00;101193.53;5017995;28;45402;-73
2021/11/21 05:30:16;;;;;;;;;32.75;26.75;;;;;10.12;100.00;101192.88;5019209;28;45414;-74
2021/11/21 05:32:42;;;;;;;;;36.75;25.25;;;;;10.12;100.00;101186.81;5025591;28;45376;-74
2021/11/21 05:35:08;;;;;;;;;27.75;24.00;;;;;10.17;100.00;101180.19;5020810;28;45359;-77
2021/11/21 05:37:35;;;;;;;;;34.75;25.50;;;;;10.15;100.00;101177.53;5018106;28;46074;-77
2021/11/21 05:40:04;;;;;;;;;31.25;23.25;;;;;10.17;100.00;101181.09;5017909;28;45219;-75
2021/11/21 05:42:29;;;;;;;;;29.75;26.00;;;;;10.19;100.00;101188.91;5018488;28;45310;-77
2021/11/21 05:44:55;;;;;;;;;26.50;23.75;;;;;10.18;100.00;101194.91;5018117;28;45349;-74
2021/11/21 05:47:20;;;;;;;;;25.50;21.75;;;;;10.08;100.00;101188.38;5017894;28;45917;-71
2021/11/21 05:49:46;;;;;;;;;31.25;24.50;;;;;10.09;100.00;101192.72;5017587;28;45451;-71
2021/11/21 05:52:11;;;;;;;;;24.75;22.50;;;;;10.08;100.00;101190.94;5018024;28;45360;-74
2021/11/21 05:54:37;;;;;;;;;31.50;23.50;;;;;10.11;100.00;101188.50;5018176;28;45569;-74
2021/11/21 05:57:03;;;;;;;;;28.25;20.75;;;;;10.11;100.00;101179.88;5017455;28;45367;-73
2021/11/21 05:59:29;;;;;;;;;32.00;24.50;;;;;10.13;100.00;101186.03;5017649;28;45181;-72
2021/11/21 06:01:54;;;;;;;;;24.75;23.00;;;;;10.06;100.00;101175.31;5017990;28;45443;-73
2021/11/21 06:04:20;;;;;;;;;31.75;27.25;;;;;10.00;100.00;101159.50;5017934;28;45348;-73
2021/11/21 06:06:46;;;;;;;;;28.50;23.50;;;;;10.08;100.00;101167.66;5017416;28;46236;-71
2021/11/21 06:09:11;;;;;;;;;23.75;21.00;;;;;10.09;100.00;101168.53;5017661;28;45301;-73
2021/11/21 06:11:37;;;;;;;;;31.50;24.25;;;;;10.10;100.00;101181.53;5018089;28;45345;-73
2021/11/21 06:14:02;;;;;;;;;29.25;22.25;;;;;10.08;100.00;101159.91;5017502;28;45226;-75
2021/11/21 06:16:28;;;;;;;;;25.00;22.25;;;;;10.01;100.00;101170.72;5017343;28;46278;-73
2021/11/21 06:18:53;;;;;;;;;27.75;21.50;;;;;9.98;100.00;101168.88;5017103;28;45350;-75
2021/11/21 06:21:19;;;;;;;;;22.00;19.75;;;;;9.96;100.00;101157.53;5017774;28;45482;-75
2021/11/21 06:23:45;;;;;;;;;26.50;19.75;;;;;9.96;100.00;101159.25;5017676;28;45306;-77
2021/11/21 06:26:12;;;;;;;;;25.50;17.50;;;;;9.96;100.00;101162.72;4999409;28;45484;-75
2021/11/21 06:28:38;;;;;;;;;23.75;21.00;;;;;9.96;100.00;101154.97;4999793;28;45440;-73
2021/11/21 06:31:03;;;;;;;;;27.50;20.75;;;;;9.95;100.00;101150.59;5017318;28;45331;-74
2021/11/21 06:33:29;;;;;;;;;28.50;24.50;;;;;9.96;100.00;101157.53;5017750;28;45467;-74
2021/11/21 06:35:54;;;;;;;;;31.25;23.00;;;;;10.00;100.00;101172.44;5017205;28;45392;-73
2021/11/21 06:38:21;;;;;;;;;27.75;21.00;;;;;9.91;100.00;101159.88;5017348;28;45475;-75
2021/11/21 06:40:46;;;;;;;;;21.50;19.75;;;;;9.94;100.00;101166.03;4999630;28;45418;-74
2021/11/21 06:43:12;;;;;;;;;30.75;23.50;;;;;9.90;100.00;101158.09;5017593;28;45569;-73
2021/11/21 06:45:38;;;;;;;;;28.00;22.00;;;;;9.88;100.00;101157.13;5017293;28;45208;-73
2021/11/21 06:48:11;;;;;;;;;24.00;19.50;;;;;9.90;100.00;101160.69;5016642;28;45560;-73
2021/11/21 06:50:37;;;;;;;;;25.50;21.50;;;;;9.98;100.00;101157.66;5017267;28;45408;-73
2021/11/21 06:53:04;;;;;;;;;20.50;18.50;;;;;9.99;100.00;101156.84;5016903;28;45494;-74
2021/11/21 06:55:30;;;;;;;;;30.00;22.50;;;;;10.03;100.00;101167.44;5015400;28;46673;-73
2021/11/21 06:57:56;;;;;;;;;23.75;20.25;;;;;10.02;100.00;101154.41;5016761;28;45818;-73
2021/11/21 07:00:22;;;;;;;;;31.50;22.50;;;;;10.05;100.00;101149.38;5017012;28;45426;-73
2021/11/21 07:02:47;;;;;;;;;23.25;21.75;;;;;10.07;100.00;101159.00;5016746;28;45574;-74
2021/11/21 07:05:13;;;;;;;;;23.75;20.50;;;;;10.09;100.00;101160.78;5016717;28;45567;-76
2021/11/21 07:07:40;;;;;;;;;31.00;22.00;;;;;10.11;100.00;101159.16;5017192;28;45335;-76
2021/11/21 07:10:07;;;;;;;;;25.25;20.75;;;;;10.08;100.00;101157.31;5017219;28;45399;-76
2021/11/21 07:12:33;;;;;;;;;26.50;22.25;;;;;10.10;100.00;101158.25;5016923;28;45599;-76
2021/11/21 07:14:58;;;;;;;;;18.00;16.25;;;;;10.09;100.00;101150.44;5016298;28;45831;-76
2021/11/21 07:17:25;;;;;;;;;20.50;18.00;;;;;10.03;100.00;101151.00;5016394;28;46011;-77
2021/11/21 07:19:51;;;;;;;;;25.75;21.50;;;;;10.05;100.00;101158.03;5015849;28;45371;-74
2021/11/21 07:22:17;;;;;;;;;24.75;21.75;;;;;10.05;100.00;101150.25;5016714;28;45410;-74
2021/11/21 07:24:42;;;;;;;;;26.75;19.25;;;;;10.04;100.00;101140.72;5015651;28;45344;-74
2021/11/21 07:27:08;;;;;;;;;23.50;21.75;;;;;9.98;100.00;101135.25;5015903;28;45312;-75
2021/11/21 07:29:33;;;;;;;;;25.25;19.25;;;;;9.98;100.00;101126.59;5015749;28;45304;-75
2021/11/21 07:32:02;;;;;;;;;21.75;17.25;;;;;9.99;100.00;101138.72;5015869;28;45255;-74
2021/11/21 07:34:29;;;;;;;;;25.00;21.00;;;;;9.99;100.00;101137.03;5016520;28;46625;-74
2021/11/21 07:36:55;;;;;;;;;22.00;19.50;;;;;10.03;100.00;101140.66;5016061;28;45408;-74
2021/11/21 07:39:22;;;;;;;;;20.25;17.25;;;;;10.04;100.00;101147.59;5016343;28;45300;-74
2021/11/21 07:41:49;;;;;;;;;23.75;18.50;;;;;10.01;100.00;101138.00;5016327;28;45279;-73
2021/11/21 07:44:15;;;;;;;;;18.00;17.25;;;;;10.06;100.00;101146.00;5015876;28;45714;-74
2021/11/21 07:46:42;;;;;;;;;17.50;17.00;;;;;10.06;100.00;101149.47;5016175;28;45439;-74
2021/11/21 07:49:08;;;;;;;;;22.00;13.25;;;;;10.07;100.00;101140.88;5017879;28;45399;-73
2021/11/21 07:51:34;;;;;;;;;21.00;19.25;;;;;10.11;100.00;101138.47;5016652;28;45490;-73
2021/11/21 07:54:00;;;;;;;;;27.00;18.75;;;;;10.13;100.00;101137.72;5015599;28;45514;-73
2021/11/21 07:56:25;;;;;;;;;22.50;19.00;;;;;10.16;100.00;101145.66;5016234;28;45455;-76
2021/11/21 07:58:51;;;;;;;;;23.50;17.75;;;;;10.11;100.00;101141.94;5001798;28;45333;-74
2021/11/21 08:01:17;;;;;;;;;21.25;18.00;;;;;10.10;100.00;101137.56;5016203;28;45542;-77
2021/11/21 08:03:43;;;;;;;;;22.00;14.00;;;;;10.11;100.00;101143.66;5017148;28;46206;-79
2021/11/21 08:06:09;;;;;;;;;19.25;18.75;;;;;10.09;100.00;101128.06;5018362;28;45615;-76
2021/11/21 08:08:35;;;;;;;;;21.00;18.75;;;;;10.14;100.00;101125.69;5017501;28;45340;-78
2021/11/21 08:11:01;;;;;;;;;21.50;18.75;;;;;10.13;100.00;101121.34;5016310;28;45473;-76
2021/11/21 08:13:27;;;;;;;;;24.25;20.50;;;;;10.16;100.00;101135.31;5015113;28;45913;-77
2021/11/21 08:15:54;;;;;;;;;15.25;12.50;;;;;10.17;100.00;101137.09;5013762;28;45200;-75
2021/11/21 08:18:20;;;;;;;;;19.25;16.00;;;;;10.16;100.00;101132.72;5015238;28;45331;-73
2021/11/21 08:20:46;;;;;;;;;23.25;20.75;;;;;10.22;100.00;101133.03;5014844;28;45476;-73
2021/11/21 08:23:12;;;;;;;;;18.75;15.50;;;;;10.22;100.00;101130.44;5014939;28;45319;-73
2021/11/21 08:25:38;;;;;;;;;17.75;13.00;;;;;10.14;100.00;101125.69;5016578;28;46040;-78
2021/11/21 08:28:04;;;;;;;;;19.00;16.00;;;;;10.16;100.00;101126.66;5025562;28;45451;-77
2021/11/21 08:30:35;;;;;;;;;19.25;17.50;;;;;10.12;100.00;101124.72;5015720;28;46003;-82
2021/11/21 08:33:03;;;;;;;;;19.75;15.75;;;;;10.16;100.00;101135.31;5022492;28;46129;-81
2021/11/21 08:35:29;;;;;;;;;18.50;15.25;;;;;10.12;100.00;101119.56;5015528;28;45398;-83
2021/11/21 08:37:55;;;;;;;;;17.25;15.75;;;;;10.17;100.00;101137.09;5002016;28;45501;-76
2021/11/21 08:40:21;;;;;;;;;19.50;14.50;;;;;10.23;100.00;101144.28;5015634;28;45348;-78
2021/11/21 08:42:47;;;;;;;;;22.75;18.50;;;;;10.26;100.00;101143.53;5015097;28;46082;-80
2021/11/21 08:45:13;;;;;;;;;21.25;15.75;;;;;10.25;100.00;101145.25;5020644;28;45265;-79
2021/11/21 08:47:40;;;;;;;;;18.00;15.75;;;;;10.21;100.00;101135.56;5020120;28;45457;-79
2021/11/21 08:50:08;;;;;;;;;26.50;20.00;;;;;10.27;100.00;101146.19;5007697;28;45621;-77
2021/11/21 08:52:35;;;;;;;;;21.00;18.75;;;;;10.28;100.00;101149.69;5031085;28;45327;-76
2021/11/21 08:55:02;;;;;;;;;25.75;18.50;;;;;10.28;100.00;101134.16;5001010;28;45815;-77
2021/11/21 08:57:29;;;;;;;;;17.00;15.25;;;;;10.22;100.00;101120.09;5019137;28;45426;-76
2021/11/21 08:59:55;;;;;;;;;20.50;16.50;;;;;10.36;100.00;101133.75;5024663;28;45731;-79
2021/11/21 09:02:21;;;;;;;;;15.50;15.25;;;;;10.36;100.00;101136.34;5023939;28;45315;-74
2021/11/21 09:04:47;;;;;;;;;21.50;18.25;;;;;10.38;100.00;101128.69;5018025;28;45442;-78
2021/11/21 09:07:12;;;;;;;;;23.00;14.75;;;;;10.43;100.00;101128.91;5018434;28;45352;-77
2021/11/21 09:09:38;;;;;;;;;21.25;18.75;;;;;10.35;100.00;101110.38;5018852;28;45419;-77
2021/11/21 09:12:04;;;;;;;;;16.00;14.00;;;;;10.33;100.00;101102.53;5012331;28;45466;-77
2021/11/21 09:14:30;;;;;;;;;19.00;17.50;;;;;10.40;100.00;101100.28;5018190;28;45740;-77
2021/11/21 09:16:56;;;;;;;;;21.50;17.75;;;;;10.36;100.00;101104.38;5018179;28;45348;-75
2021/11/21 09:19:22;;;;;;;;;22.00;18.25;;;;;10.29;100.00;101095.41;5018876;28;45506;-85
2021/11/21 09:21:47;;;;;;;;;19.50;17.75;;;;;10.33;100.00;101118.06;5018422;28;45335;-84
2021/11/21 09:24:13;;;;;;;;;18.75;17.00;;;;;10.38;100.00;101118.31;5019316;28;45285;-77
2021/11/21 09:26:39;;;;;;;;;25.50;19.00;;;;;10.33;100.00;101114.56;5021991;28;45598;-83
2021/11/21 09:29:05;;;;;;;;;19.75;15.75;;;;;10.33;100.00;101125.81;5023364;28;44859;-79
2021/11/21 09:31:31;;;;;;;;;21.25;17.25;;;;;10.38;100.00;101131.28;5019453;28;45998;-81
2021/11/21 09:33:57;;;;;;;;;22.00;19.00;;;;;10.27;100.00;101122.91;5020439;28;45355;-84
2021/11/21 09:36:22;;;;;;;;;20.50;15.50;;;;;10.25;100.00;101119.38;5017663;28;45324;-77
2021/11/21 09:38:49;;;;;;;;;24.25;19.50;;;;;10.29;100.00;101126.47;5017745;28;45603;-85
2021/11/21 09:41:15;;;;;;;;;25.00;19.75;;;;;10.37;100.00;101145.91;5017660;28;45972;-86
2021/11/21 09:43:41;;;;;;;;;27.00;20.50;;;;;10.37;100.00;101147.56;5018761;28;45361;-80
2021/11/21 09:46:09;;;;;;;;;20.75;19.75;;;;;10.40;100.00;101145.19;5018305;28;45372;-79
2021/11/21 09:48:34;;;;;;;;;20.00;17.75;;;;;10.41;100.00;101130.53;5017855;28;45335;-79
2021/11/21 09:51:02;;;;;;;;;27.50;23.00;;;;;10.49;100.00;101130.13;5016627;28;46326;-73
2021/11/21 09:53:28;;;;;;;;;24.25;22.00;;;;;10.58;100.00;101136.56;5016561;28;45933;-78
2021/11/21 09:55:55;;;;;;;;;25.50;19.00;;;;;10.66;100.00;101136.13;5016889;28;45395;-77
2021/11/21 09:58:22;;;;;;;;;28.25;21.00;;;;;10.69;100.00;101131.09;5016863;28;45157;-77
2021/11/21 10:00:48;;;;;;;;;24.50;20.50;;;;;10.76;100.00;101132.28;5016504;28;46492;-78
2021/11/21 10:03:15;;;;;;;;;32.75;22.25;;;;;10.80;100.00;101120.38;5016548;28;45318;-76
2021/11/21 10:05:46;;;;;;;;;24.25;19.75;;;;;10.87;100.00;101127.63;5016738;28;45320;-76
2021/11/21 10:08:18;;;;;;;;;26.50;20.25;;;;;10.90;100.00;101116.53;5017549;28;45241;-79
2021/11/21 10:10:48;;;;;;;;;24.50;23.00;;;;;10.93;100.00;101112.38;5017030;28;45614;-78
2021/11/21 10:13:42;;;;;;;;;26.00;22.75;;;;;10.76;100.00;101090.84;5016611;28;45325;-81
2021/11/21 10:16:21;;;;;;;;;28.00;23.00;;;;;10.77;100.00;101100.38;5014521;28;45569;-83
2021/11/21 10:18:58;;;;;;;;;19.25;16.00;;;;;10.84;100.00;101109.34;5018282;28;45392;-83
2021/11/21 10:21:34;;;;;;;;;24.50;22.00;;;;;10.86;100.00;101110.31;5019998;28;46165;-88
2021/11/21 10:24:10;;;;;;;;;24.00;21.75;;;;;10.84;100.00;101117.13;5016900;28;45790;-77
2021/11/21 10:26:35;;;;;;;;;30.00;22.75;;;;;10.77;100.00;101096.94;5019080;28;45334;-78
2021/11/21 10:29:05;;;;;;;;;21.75;20.75;;;;;10.85;100.00;101111.13;5018148;28;45241;-79
2021/11/21 10:31:31;;;;;;;;;27.25;23.50;;;;;10.86;100.00;101106.81;5016779;28;45430;-75
2021/11/21 10:33:58;;;;;;;;;21.75;20.50;;;;;10.87;100.00;101103.41;5016501;28;45308;-79
2021/11/21 10:36:30;;;;;;;;;23.00;23.00;;;;;10.95;100.00;101110.75;4998855;28;45264;-76
2021/11/21 10:39:06;;;;;;;;;26.25;24.50;;;;;10.95;100.00;101113.34;5016483;28;45535;-75
2021/11/21 10:41:35;;;;;;;;;27.25;22.50;;;;;10.99;100.00;101104.00;5015231;28;45948;-74
2021/11/21 10:44:03;;;;;;;;;27.50;23.00;;;;;10.98;100.00;101102.22;5015324;28;45405;-75
2021/11/21 10:46:47;;;;;;;;;26.00;22.00;;;;;10.94;100.00;101100.34;5015804;28;45619;-75
2021/11/21 10:49:14;;;;;;;;;23.75;20.50;;;;;10.95;100.00;101102.97;4996942;28;45648;-75
2021/11/21 10:51:40;;;;;;;;;21.25;18.00;;;;;10.98;100.00;101104.81;5016109;28;46294;-76
2021/11/21 10:54:28;;;;;;;;;22.25;20.00;;;;;11.02;100.00;101106.75;5016489;28;46010;-79
2021/11/21 10:56:58;;;;;;;;;26.75;22.75;;;;;11.07;100.00;101099.22;4998035;28;45280;-78
2021/11/21 10:59:37;;;;;;;;;27.75;23.25;;;;;11.09;100.00;101102.75;5016586;28;45530;-79